createdAt,value
2024-01-30T00:01:14.428Z,12.47
2024-01-30T00:06:20.113Z,13.37
2024-01-30T00:11:26.683Z,12.77
2024-01-30T00:16:30.231Z,12.23
2024-01-30T00:21:33.005Z,13.47
2024-01-30T00:26:37.453Z,12.97
2024-01-30T00:31:42.350Z,12.67
2024-01-30T00:36:45.262Z,12.67
2024-01-30T00:41:49.278Z,11.97
2024-01-30T00:46:51.986Z,12.77
2024-01-30T00:51:54.758Z,12.17
2024-01-30T00:56:58.931Z,12.37
2024-01-30T01:02:01.801Z,11.97
2024-01-30T01:07:04.716Z,12.37
2024-01-30T01:12:09.316Z,12.20
2024-01-30T01:17:12.040Z,12.43
2024-01-30T01:22:14.741Z,11.50
2024-01-30T01:27:18.857Z,11.80
2024-01-30T01:32:22.523Z,11.77
2024-01-30T01:37:27.753Z,10.20
2024-01-30T01:42:31.996Z,10.50
2024-01-30T01:47:34.790Z,11.27
2024-01-30T01:52:39.289Z,11.10
2024-01-30T01:57:44.170Z,12.27
2024-01-30T02:02:48.405Z,11.07
2024-01-30T02:07:52.406Z,11.80
2024-01-30T02:12:56.483Z,11.10
2024-01-30T02:17:59.248Z,11.67
2024-01-30T02:23:04.077Z,11.83
2024-01-30T02:28:07.303Z,11.77
2024-01-30T02:33:10.135Z,11.33
2024-01-30T02:38:14.118Z,11.43
2024-01-30T02:43:17.664Z,11.17
2024-01-30T02:48:20.438Z,12.33
2024-01-30T02:53:24.474Z,11.60
2024-01-30T02:58:27.233Z,12.73
2024-01-30T03:03:30.081Z,11.93
2024-01-30T03:08:35.786Z,11.30
2024-01-30T03:13:38.554Z,12.67
2024-01-30T03:18:41.355Z,12.77
2024-01-30T03:23:45.433Z,11.43
2024-01-30T03:28:48.139Z,12.30
2024-01-30T03:33:50.957Z,12.53
2024-01-30T03:38:55.119Z,13.03
2024-01-30T03:43:57.840Z,12.37
2024-01-30T03:49:00.579Z,13.07
2024-01-30T03:54:04.746Z,11.03
2024-01-30T03:59:08.092Z,11.50
2024-01-30T04:04:13.036Z,12.37
2024-01-30T04:09:32.071Z,11.30
2024-01-30T04:20:45.747Z,11.07
2024-01-30T04:26:07.941Z,12.27
2024-01-30T04:31:51.126Z,12.13
2024-01-30T04:37:23.501Z,11.93
2024-01-30T04:42:59.017Z,11.47
2024-01-30T04:48:33.365Z,11.47
2024-01-30T04:53:56.566Z,12.13
2024-01-30T04:59:20.539Z,11.47
2024-01-30T05:04:35.853Z,11.57
2024-01-30T05:10:07.264Z,12.63
2024-01-30T05:21:29.985Z,12.53
2024-01-30T05:27:03.793Z,11.37
2024-01-30T05:38:14.233Z,11.17
2024-01-30T05:43:33.881Z,11.50
2024-01-30T05:49:00.654Z,11.97
2024-01-30T05:55:18.961Z,11.70
2024-01-30T06:00:45.028Z,12.10
2024-01-30T06:06:34.961Z,12.03
2024-01-30T06:12:23.899Z,12.03
2024-01-30T06:18:02.206Z,12.03
2024-01-30T06:23:40.100Z,11.63
2024-01-30T06:29:01.268Z,12.03
2024-01-30T06:34:14.101Z,11.80
2024-01-30T06:39:18.317Z,12.30
2024-01-30T06:44:21.240Z,12.60
2024-01-30T06:49:24.037Z,12.03
2024-01-30T06:54:28.067Z,13.27
2024-01-30T06:59:30.758Z,13.17
2024-01-30T07:04:33.585Z,11.83
2024-01-30T07:09:37.697Z,11.27
2024-01-30T07:14:40.457Z,11.97
2024-01-30T07:19:43.201Z,11.37
2024-01-30T07:24:49.544Z,12.50
2024-01-30T07:29:52.361Z,10.67
2024-01-30T07:35:03.604Z,10.70
2024-01-30T07:40:13.022Z,10.70
2024-01-30T07:45:15.988Z,10.53
2024-01-30T07:50:20.014Z,10.37
2024-01-30T07:55:25.752Z,10.00
2024-01-30T08:00:30.225Z,9.80
2024-01-30T08:05:33.246Z,10.47
2024-01-30T08:10:37.713Z,9.87
2024-01-30T08:15:40.449Z,10.33
2024-01-30T08:20:43.677Z,9.60
2024-01-30T08:25:47.690Z,9.67
2024-01-30T08:30:50.403Z,10.37
2024-01-30T08:35:53.512Z,9.80
2024-01-30T08:40:58.420Z,10.40
2024-01-30T08:46:01.502Z,9.87
2024-01-30T08:51:04.285Z,9.60
2024-01-30T08:56:09.153Z,9.17
2024-01-30T09:01:12.091Z,10.00
2024-01-30T09:06:15.258Z,9.93
2024-01-30T09:11:19.317Z,9.53
2024-01-30T09:16:22.166Z,9.73
2024-01-30T09:21:25.101Z,10.17
2024-01-30T09:32:27.453Z,10.67
2024-01-30T09:37:59.448Z,11.07
2024-01-30T09:43:50.448Z,10.87
2024-01-30T09:55:05.667Z,11.53
2024-01-30T10:00:51.086Z,11.07
2024-01-30T10:05:58.029Z,9.80
2024-01-30T10:11:13.613Z,10.30
2024-01-30T10:16:23.787Z,9.97
2024-01-30T10:21:26.867Z,10.33
2024-01-30T10:26:37.702Z,10.18
2024-01-30T10:31:51.958Z,10.13
2024-01-30T10:37:08.373Z,10.40
2024-01-30T10:42:15.117Z,9.37
2024-01-30T10:47:24.237Z,9.80
2024-01-30T10:52:45.668Z,9.40
2024-01-30T10:57:51.752Z,9.80
2024-01-30T11:03:24.983Z,10.23
2024-01-30T11:08:30.134Z,9.87
2024-01-30T11:13:36.168Z,10.33
2024-01-30T11:18:43.563Z,10.23
2024-01-30T11:23:48.854Z,10.93
2024-01-30T11:28:57.540Z,10.67
2024-01-30T11:34:03.911Z,10.00
2024-01-30T11:39:15.816Z,11.43
2024-01-30T11:44:22.415Z,12.30
2024-01-30T11:49:44.838Z,11.60
2024-01-30T12:00:32.390Z,11.80
2024-01-30T12:05:45.068Z,11.20
2024-01-30T12:11:05.287Z,11.33
2024-01-30T12:21:49.715Z,11.33
2024-01-30T12:26:59.670Z,11.77
2024-01-30T12:32:07.248Z,12.97
2024-01-30T12:37:15.823Z,11.10
2024-01-30T12:42:21.852Z,11.37
2024-01-30T12:47:47.471Z,11.43
2024-01-30T12:52:57.121Z,12.03
2024-01-30T12:58:00.244Z,12.60
2024-01-30T13:03:21.519Z,12.43
2024-01-30T13:08:46.594Z,12.20
2024-01-30T13:14:08.358Z,11.43
2024-01-30T13:19:24.079Z,11.13
2024-01-30T13:26:06.956Z,10.83
2024-01-30T13:30:56.845Z,12.27
2024-01-30T13:36:26.227Z,11.67
2024-01-30T13:41:53.170Z,11.53
2024-01-30T13:53:22.488Z,12.93
2024-01-30T13:58:56.254Z,12.07
2024-01-30T14:04:00.775Z,12.20
2024-01-30T14:09:34.613Z,12.53
2024-01-30T14:14:49.989Z,11.60
2024-01-30T14:19:53.259Z,12.50
2024-01-30T14:25:10.355Z,13.40
2024-01-30T14:30:14.782Z,13.23
2024-01-30T14:35:21.072Z,12.50
2024-01-30T14:40:30.756Z,12.47
2024-01-30T14:45:40.712Z,12.43
2024-01-30T14:50:50.403Z,13.10
2024-01-30T14:56:00.967Z,13.47
2024-01-30T15:01:07.544Z,13.37
2024-01-30T15:06:16.809Z,13.23
2024-01-30T15:11:24.474Z,14.63
2024-01-30T15:16:33.016Z,13.70
2024-01-30T15:21:38.475Z,13.83
2024-01-30T15:26:41.182Z,13.53
2024-01-30T15:31:45.223Z,12.87
2024-01-30T15:36:48.076Z,14.43
2024-01-30T15:41:50.814Z,14.27
2024-01-30T15:46:54.862Z,14.60
2024-01-30T15:51:57.574Z,13.70
2024-01-30T15:57:00.283Z,15.20
2024-01-30T16:02:06.078Z,13.80
2024-01-30T16:07:17.912Z,14.90
2024-01-30T16:12:20.658Z,14.57
2024-01-30T16:17:30.380Z,13.43
2024-01-30T16:22:42.870Z,15.07
2024-01-30T16:27:46.970Z,13.67
2024-01-30T16:32:52.549Z,14.93
2024-01-30T16:37:55.402Z,15.13
2024-01-30T16:42:58.216Z,14.70
2024-01-30T16:48:02.320Z,13.90
2024-01-30T16:53:05.173Z,16.63
2024-01-30T16:58:09.697Z,14.63
2024-01-30T17:03:13.841Z,15.57
2024-01-30T17:08:16.971Z,14.83
2024-01-30T17:13:19.928Z,15.27
2024-01-30T17:18:24.015Z,14.67
2024-01-30T17:23:27.820Z,15.83
2024-01-30T17:28:31.203Z,16.43
2024-01-30T17:33:35.878Z,16.50
2024-01-30T17:38:39.172Z,15.57
2024-01-30T17:43:42.040Z,16.47
2024-01-30T17:48:47.302Z,17.00
2024-01-30T17:53:51.765Z,15.43
2024-01-30T17:58:56.785Z,15.77
2024-01-30T18:04:00.964Z,15.23
2024-01-30T18:09:04.004Z,15.73
2024-01-30T18:14:06.892Z,17.30
2024-01-30T18:19:11.408Z,16.00
2024-01-30T18:24:14.252Z,16.33
2024-01-30T18:29:16.981Z,17.50
2024-01-30T18:34:21.113Z,17.80
2024-01-30T18:39:24.689Z,16.40
2024-01-30T18:44:27.620Z,16.27
2024-01-30T18:49:31.815Z,16.63
2024-01-30T18:54:34.594Z,17.60
2024-01-30T18:59:37.545Z,16.70
2024-01-30T19:04:42.504Z,17.23
2024-01-30T19:09:45.321Z,17.40
2024-01-30T19:14:48.997Z,18.90
2024-01-30T19:19:53.277Z,18.90
2024-01-30T19:24:56.043Z,17.80
2024-01-30T19:29:58.896Z,16.93
2024-01-30T19:35:03.058Z,17.57
2024-01-30T19:40:07.468Z,17.23
2024-01-30T19:45:12.724Z,16.40
2024-01-30T19:50:17.039Z,17.40
2024-01-30T19:55:19.830Z,18.03
2024-01-30T20:00:25.837Z,17.60
2024-01-30T20:05:30.414Z,16.80
2024-01-30T20:10:33.390Z,17.10
2024-01-30T20:15:36.372Z,17.20
2024-01-30T20:20:41.832Z,17.70
2024-01-30T20:25:44.617Z,17.47
2024-01-30T20:30:48.549Z,18.10
2024-01-30T20:35:52.614Z,18.07
2024-01-30T20:40:55.405Z,18.53
2024-01-30T20:45:59.117Z,20.13
2024-01-30T20:51:03.259Z,18.67
2024-01-30T20:56:06.098Z,19.97
2024-01-30T21:01:08.933Z,19.60
2024-01-30T21:06:14.432Z,19.43
2024-01-30T21:11:19.079Z,19.20
2024-01-30T21:16:21.951Z,20.63
2024-01-30T21:21:26.054Z,18.90
2024-01-30T21:26:29.121Z,20.20
2024-01-30T21:31:31.909Z,19.90
2024-01-30T21:36:35.971Z,21.00
2024-01-30T21:41:38.870Z,20.57
2024-01-30T21:46:41.595Z,20.10
2024-01-30T21:51:46.221Z,21.37
2024-01-30T21:56:49.044Z,20.13
2024-01-30T22:01:51.838Z,19.43
2024-01-30T22:13:42.039Z,20.93
2024-01-30T22:19:09.664Z,21.10
2024-01-30T22:24:54.252Z,20.83
2024-01-30T22:30:33.039Z,21.43
2024-01-30T22:35:59.201Z,22.17
2024-01-30T22:54:09.975Z,22.17
2024-01-30T22:59:39.902Z,21.47
2024-01-30T23:05:19.362Z,21.83
2024-01-30T23:11:01.984Z,23.17
2024-01-30T23:17:02.233Z,22.03
2024-01-30T23:34:00.512Z,22.80
2024-01-30T23:39:53.276Z,22.37
2024-01-30T23:45:31.096Z,21.57
2024-01-30T23:50:35.315Z,23.13
2024-01-30T23:55:38.123Z,21.83
